createdAt,value
2017-09-12T00:00:05.972Z,68.9
2017-09-12T00:01:07.374Z,69.3
2017-09-12T00:02:28.885Z,69.1
2017-09-12T00:03:30.287Z,69.2
2017-09-12T00:04:51.778Z,69.3
2017-09-12T00:05:53.180Z,69.6
2017-09-12T00:07:14.688Z,69.0
2017-09-12T00:08:16.095Z,69.6
2017-09-12T00:09:37.601Z,69.4
2017-09-12T00:10:39.006Z,69.7
2017-09-12T00:12:00.496Z,69.3
2017-09-12T00:13:01.897Z,69.3
2017-09-12T00:14:23.409Z,70.0
2017-09-12T00:15:24.814Z,69.4
2017-09-12T00:16:46.299Z,69.5
2017-09-12T00:17:47.700Z,69.7
2017-09-12T00:19:09.214Z,69.4
2017-09-12T00:20:10.618Z,69.5
2017-09-12T00:21:32.108Z,69.5
2017-09-12T00:22:33.511Z,70.0
2017-09-12T00:23:55.025Z,70.0
2017-09-12T00:24:56.427Z,69.9
2017-09-12T00:26:17.924Z,70.2
2017-09-12T00:27:19.329Z,70.2
2017-09-12T00:28:40.838Z,69.8
2017-09-12T00:29:42.245Z,69.5
2017-09-12T00:31:03.736Z,69.8
2017-09-12T00:32:05.137Z,69.7
2017-09-12T00:33:26.649Z,69.9
2017-09-12T00:34:28.057Z,69.6
2017-09-12T00:35:49.544Z,70.0
2017-09-12T00:36:50.946Z,69.7
2017-09-12T00:38:12.458Z,69.8
2017-09-12T00:39:13.861Z,70.0
2017-09-12T00:40:35.355Z,70.0
2017-09-12T00:41:36.755Z,69.8
2017-09-12T00:42:58.266Z,70.2
2017-09-12T00:43:59.668Z,70.0
2017-09-12T00:45:21.163Z,69.7
2017-09-12T00:46:22.569Z,69.8
2017-09-12T00:47:44.079Z,70.0
2017-09-12T00:48:45.481Z,70.3
2017-09-12T00:50:06.970Z,70.2
2017-09-12T00:51:08.374Z,70.8
2017-09-12T00:52:29.869Z,70.6
2017-09-12T00:53:31.271Z,70.7
2017-09-12T00:54:52.790Z,70.7
2017-09-12T00:55:54.185Z,71.2
2017-09-12T00:57:15.681Z,70.8
2017-09-12T00:58:17.081Z,71.1
2017-09-12T00:59:38.592Z,71.2
2017-09-12T01:00:39.995Z,71.5
2017-09-12T01:02:01.485Z,71.1
2017-09-12T01:03:02.887Z,71.3
2017-09-12T01:04:24.396Z,71.4
2017-09-12T01:05:25.796Z,71.4
2017-09-12T01:06:47.287Z,71.4
2017-09-12T01:07:48.688Z,71.3
2017-09-12T01:09:10.200Z,71.4
2017-09-12T01:10:11.602Z,71.1
2017-09-12T01:11:33.093Z,71.3
2017-09-12T01:12:34.493Z,71.3
2017-09-12T01:13:56.006Z,71.5
2017-09-12T01:14:57.407Z,71.2
2017-09-12T01:16:18.898Z,71.0
2017-09-12T01:17:20.300Z,71.0
2017-09-12T01:18:41.812Z,71.3
2017-09-12T01:19:43.219Z,71.2
2017-09-12T01:21:04.707Z,71.3
2017-09-12T01:22:06.107Z,71.1
2017-09-12T01:23:27.617Z,71.5
2017-09-12T01:24:29.020Z,71.4
2017-09-12T01:25:50.514Z,71.5
2017-09-12T01:26:51.916Z,71.7
2017-09-12T01:28:13.429Z,71.4
2017-09-12T01:29:14.832Z,71.0
2017-09-12T01:30:36.323Z,71.4
2017-09-12T01:31:37.724Z,71.3
2017-09-12T01:32:59.223Z,71.4
2017-09-12T01:34:00.622Z,71.5
2017-09-12T01:35:22.133Z,71.2
2017-09-12T01:36:23.534Z,71.5
2017-09-12T01:37:45.025Z,71.1
2017-09-12T01:38:46.427Z,71.7
2017-09-12T01:40:07.936Z,71.5
2017-09-12T01:41:09.342Z,71.6
2017-09-12T01:42:30.832Z,71.6
2017-09-12T01:43:32.231Z,71.3
2017-09-12T01:44:53.743Z,71.6
2017-09-12T01:45:55.144Z,71.4
2017-09-12T01:47:16.639Z,71.6
2017-09-12T01:48:18.040Z,71.2
2017-09-12T01:49:39.551Z,71.4
2017-09-12T01:50:40.954Z,71.6
2017-09-12T01:52:02.444Z,71.6
2017-09-12T01:53:03.845Z,72.1
2017-09-12T01:54:25.362Z,72.1
2017-09-12T01:55:26.763Z,71.4
2017-09-12T01:56:48.252Z,71.3
2017-09-12T01:57:49.657Z,72.2
2017-09-12T01:59:11.167Z,72.2
2017-09-12T02:00:12.569Z,72.2
2017-09-12T02:01:34.058Z,72.0
2017-09-12T02:02:35.460Z,72.0
2017-09-12T02:03:56.971Z,71.9
2017-09-12T02:04:58.373Z,72.6
2017-09-12T02:06:19.861Z,71.7
2017-09-12T02:07:21.261Z,71.9
2017-09-12T02:08:42.776Z,72.0
2017-09-12T02:09:44.180Z,71.8
2017-09-12T02:11:05.667Z,72.1
2017-09-12T02:12:07.070Z,72.2
2017-09-12T02:13:28.582Z,72.1
2017-09-12T02:14:29.986Z,72.0
2017-09-12T02:15:51.490Z,72.3
2017-09-12T02:16:52.891Z,72.2
2017-09-12T02:18:14.380Z,71.9
2017-09-12T02:19:15.783Z,72.3
2017-09-12T02:20:37.292Z,72.1
2017-09-12T02:21:38.693Z,71.8
2017-09-12T02:23:00.182Z,72.3
2017-09-12T02:24:01.582Z,72.1
2017-09-12T02:25:23.095Z,71.8
2017-09-12T02:26:24.499Z,72.2
2017-09-12T02:27:45.985Z,72.1
2017-09-12T02:28:47.389Z,72.0
2017-09-12T02:30:08.900Z,71.9
2017-09-12T02:31:10.305Z,71.4
2017-09-12T02:32:31.790Z,71.7
2017-09-12T02:33:33.192Z,71.4
2017-09-12T02:34:54.702Z,72.3
2017-09-12T02:35:56.103Z,71.8
2017-09-12T02:37:17.594Z,72.4
2017-09-12T02:38:19.000Z,72.4
2017-09-12T02:39:40.511Z,72.0
2017-09-12T02:40:41.918Z,72.6
2017-09-12T02:42:03.403Z,72.3
2017-09-12T02:43:04.808Z,72.9
2017-09-12T02:44:26.329Z,73.2
2017-09-12T02:45:27.722Z,73.6
2017-09-12T02:46:49.215Z,74.2
2017-09-12T02:47:50.615Z,74.4
2017-09-12T02:49:12.131Z,74.1
2017-09-12T02:50:13.534Z,74.2
2017-09-12T02:51:35.024Z,74.1
2017-09-12T02:52:36.425Z,74.2
2017-09-12T02:53:57.937Z,75.3
2017-09-12T02:54:59.337Z,75.2
2017-09-12T02:56:20.828Z,76.2
2017-09-12T02:57:22.231Z,76.2
2017-09-12T02:58:43.722Z,77.6
2017-09-12T02:59:45.123Z,77.5
2017-09-12T03:01:06.631Z,77.6
2017-09-12T03:02:08.034Z,78.4
2017-09-12T03:03:29.528Z,79.7
2017-09-12T03:04:30.928Z,79.3
2017-09-12T03:05:52.440Z,80.1
2017-09-12T03:06:53.841Z,79.9
2017-09-12T03:08:15.332Z,80.1
2017-09-12T03:09:16.737Z,79.6
2017-09-12T03:10:38.249Z,79.4
2017-09-12T03:11:39.652Z,79.7
2017-09-12T03:13:01.147Z,79.3
2017-09-12T03:14:02.548Z,79.4
2017-09-12T03:15:24.062Z,79.3
2017-09-12T03:16:25.464Z,79.1
2017-09-12T03:17:46.953Z,79.3
2017-09-12T03:18:48.355Z,79.5
2017-09-12T03:20:09.868Z,79.6
2017-09-12T03:21:11.268Z,79.4
2017-09-12T03:22:32.760Z,80.2
2017-09-12T03:23:34.160Z,80.0
2017-09-12T03:24:55.677Z,80.5
2017-09-12T03:25:57.079Z,80.2
2017-09-12T03:27:18.609Z,80.1
2017-09-12T03:28:20.011Z,80.2
2017-09-12T03:29:41.522Z,80.3
2017-09-12T03:30:42.924Z,80.6
2017-09-12T03:32:04.607Z,80.8
2017-09-12T03:33:06.009Z,81.1
2017-09-12T03:34:27.524Z,80.4
2017-09-12T03:35:28.924Z,80.4
2017-09-12T03:36:50.419Z,80.3
2017-09-12T03:37:51.822Z,80.7
2017-09-12T03:39:13.334Z,80.1
2017-09-12T03:40:14.734Z,80.1
2017-09-12T03:41:36.227Z,80.1
2017-09-12T03:42:37.628Z,80.2
2017-09-12T03:43:59.120Z,80.3
2017-09-12T03:45:00.519Z,80.4
2017-09-12T03:46:22.035Z,80.3
2017-09-12T03:47:23.437Z,80.1
2017-09-12T03:48:44.926Z,80.2
2017-09-12T03:49:46.329Z,80.9
2017-09-12T03:51:07.843Z,80.6
2017-09-12T03:52:09.247Z,80.2
2017-09-12T03:53:30.735Z,80.0
2017-09-12T03:54:32.135Z,80.1
2017-09-12T03:55:53.652Z,79.5
2017-09-12T03:56:55.056Z,79.5
2017-09-12T03:58:16.609Z,79.2
2017-09-12T03:59:17.969Z,79.2
2017-09-12T04:00:39.480Z,79.3
2017-09-12T04:01:40.882Z,79.4
2017-09-12T04:03:02.374Z,78.9
2017-09-12T04:04:03.775Z,79.4
2017-09-12T04:05:25.284Z,79.2
2017-09-12T04:06:26.688Z,78.9
2017-09-12T04:07:48.176Z,79.1
2017-09-12T04:08:49.579Z,79.3
2017-09-12T04:10:11.090Z,79.1
2017-09-12T04:11:12.493Z,80.3
2017-09-12T04:12:33.990Z,79.0
2017-09-12T04:13:35.395Z,79.1
2017-09-12T04:14:56.911Z,78.5
2017-09-12T04:15:58.314Z,78.9
2017-09-12T04:17:19.804Z,78.0
2017-09-12T04:18:21.206Z,78.2
2017-09-12T04:19:42.704Z,78.0
2017-09-12T04:20:44.105Z,78.2
2017-09-12T04:22:05.617Z,78.5
2017-09-12T04:23:07.023Z,77.4
2017-09-12T04:24:28.512Z,77.8
2017-09-12T04:25:29.910Z,78.3
2017-09-12T04:26:51.417Z,77.8
2017-09-12T04:27:52.821Z,77.9
2017-09-12T04:29:14.314Z,77.9
2017-09-12T04:30:15.711Z,77.4
2017-09-12T04:31:37.220Z,78.0
2017-09-12T04:32:38.622Z,77.4
2017-09-12T04:34:00.116Z,78.0
2017-09-12T04:35:01.522Z,77.6
2017-09-12T04:36:23.025Z,77.6
2017-09-12T04:37:24.427Z,77.9
2017-09-12T04:38:45.921Z,77.6
2017-09-12T04:39:47.320Z,77.5
2017-09-12T04:41:08.834Z,77.6
2017-09-12T04:42:10.240Z,77.5
2017-09-12T04:43:31.732Z,78.0
2017-09-12T04:44:33.135Z,77.9
2017-09-12T04:45:54.646Z,77.5
2017-09-12T04:46:56.049Z,77.6
2017-09-12T04:48:17.537Z,77.2
2017-09-12T04:49:18.940Z,77.3
2017-09-12T04:50:40.453Z,77.7
2017-09-12T04:51:41.858Z,77.4
2017-09-12T04:53:03.349Z,77.4
2017-09-12T04:54:04.752Z,77.5
2017-09-12T04:55:26.264Z,77.5
2017-09-12T04:56:27.672Z,77.4
2017-09-12T04:57:49.159Z,77.3
2017-09-12T04:58:50.561Z,77.6
2017-09-12T05:00:12.074Z,77.6
2017-09-12T05:01:13.479Z,77.2
2017-09-12T05:02:34.972Z,77.5
2017-09-12T05:03:36.375Z,77.6
2017-09-12T05:04:57.871Z,78.3
2017-09-12T05:05:59.276Z,78.4
2017-09-12T05:07:20.794Z,78.2
2017-09-12T05:08:22.199Z,77.6
2017-09-12T05:09:43.693Z,77.8
2017-09-12T05:10:45.096Z,78.1
2017-09-12T05:12:06.616Z,78.1
2017-09-12T05:13:08.020Z,79.2
2017-09-12T05:14:29.513Z,78.7
2017-09-12T05:15:30.918Z,78.5
2017-09-12T05:16:52.439Z,78.5
2017-09-12T05:17:53.839Z,78.7
2017-09-12T05:19:15.463Z,79.1
2017-09-12T05:20:16.866Z,79.4
2017-09-12T05:21:38.380Z,79.5
2017-09-12T05:22:39.786Z,79.2
2017-09-12T05:24:01.281Z,79.2
2017-09-12T05:25:02.688Z,79.6
2017-09-12T05:26:24.202Z,80.3
2017-09-12T05:27:25.607Z,80.0
2017-09-12T05:28:47.106Z,79.7
2017-09-12T05:29:48.510Z,80.3
2017-09-12T05:31:10.024Z,80.1
2017-09-12T05:32:11.432Z,80.2
2017-09-12T05:33:32.925Z,80.7
2017-09-12T05:34:34.329Z,80.6
2017-09-12T05:35:55.849Z,80.2
2017-09-12T05:36:57.253Z,80.3
2017-09-12T05:38:18.752Z,80.2
2017-09-12T05:39:20.154Z,80.1
2017-09-12T05:40:41.667Z,80.1
2017-09-12T05:41:43.074Z,80.6
2017-09-12T05:43:04.567Z,80.0
2017-09-12T05:44:05.972Z,80.0
2017-09-12T05:45:27.470Z,80.3
2017-09-12T05:46:28.874Z,80.8
2017-09-12T05:47:50.389Z,80.7
2017-09-12T05:48:51.796Z,81.0
2017-09-12T05:50:13.294Z,80.9
2017-09-12T05:51:14.699Z,81.1
2017-09-12T05:52:36.209Z,81.2
2017-09-12T05:53:37.616Z,80.8
2017-09-12T05:54:59.111Z,80.7
2017-09-12T05:56:00.517Z,80.7
2017-09-12T05:57:22.030Z,80.9
2017-09-12T05:58:23.438Z,80.9
2017-09-12T05:59:44.934Z,80.1
2017-09-12T06:00:46.342Z,80.6
2017-09-12T06:02:07.861Z,80.9
2017-09-12T06:03:09.268Z,80.9
2017-09-12T06:04:30.763Z,80.6
2017-09-12T06:05:32.169Z,81.1
2017-09-12T06:06:53.685Z,81.1
2017-09-12T06:07:55.092Z,81.0
2017-09-12T06:09:16.592Z,80.6
2017-09-12T06:10:17.997Z,80.9
2017-09-12T06:11:39.514Z,81.2
2017-09-12T06:12:40.922Z,80.9
2017-09-12T06:14:02.422Z,80.8
2017-09-12T06:15:03.830Z,80.9
2017-09-12T06:16:25.345Z,80.9
2017-09-12T06:17:26.753Z,80.5
2017-09-12T06:18:48.245Z,80.9
2017-09-12T06:19:49.650Z,80.4
2017-09-12T06:21:11.166Z,80.5
2017-09-12T06:22:12.572Z,80.5
2017-09-12T06:23:34.073Z,80.5
2017-09-12T06:24:35.478Z,80.3
2017-09-12T06:25:56.995Z,80.0
2017-09-12T06:26:58.404Z,80.0
2017-09-12T06:28:20.083Z,79.8
2017-09-12T06:29:21.491Z,80.0
2017-09-12T06:30:42.989Z,80.3
2017-09-12T06:31:44.391Z,81.1
2017-09-12T06:33:05.908Z,80.4
2017-09-12T06:34:07.316Z,80.0
2017-09-12T06:35:28.815Z,80.6
2017-09-12T06:36:30.220Z,80.3
2017-09-12T06:37:51.735Z,80.1
2017-09-12T06:38:53.146Z,79.5
2017-09-12T06:40:14.650Z,79.4
2017-09-12T06:41:16.054Z,79.3
2017-09-12T06:42:37.569Z,79.3
2017-09-12T06:43:38.979Z,79.2
2017-09-12T06:45:00.481Z,79.4
2017-09-12T06:46:01.887Z,79.6
2017-09-12T06:47:23.405Z,79.2
2017-09-12T06:48:24.815Z,78.9
2017-09-12T06:49:46.903Z,78.7
2017-09-12T06:50:48.308Z,77.7
2017-09-12T06:52:10.204Z,78.4
2017-09-12T06:53:11.589Z,77.4
2017-09-12T06:54:33.098Z,77.7
2017-09-12T06:55:34.508Z,78.2
2017-09-12T06:56:56.028Z,78.4
2017-09-12T06:57:57.433Z,77.8
2017-09-12T06:59:18.931Z,77.3
2017-09-12T07:00:20.338Z,77.5
2017-09-12T07:01:41.858Z,77.8
2017-09-12T07:02:43.267Z,77.5
2017-09-12T07:04:04.770Z,77.4
2017-09-12T07:05:06.179Z,77.1
2017-09-12T07:06:27.694Z,77.8
2017-09-12T07:07:29.105Z,77.5
2017-09-12T07:08:50.605Z,77.6
2017-09-12T07:09:52.010Z,76.7
2017-09-12T07:11:13.530Z,76.8
2017-09-12T07:12:14.938Z,77.2
2017-09-12T07:13:36.436Z,77.3
2017-09-12T07:14:37.848Z,76.9
2017-09-12T07:15:59.395Z,77.3
2017-09-12T07:17:00.804Z,77.2
2017-09-12T07:18:22.333Z,76.2
2017-09-12T07:19:23.733Z,76.4
2017-09-12T07:20:45.234Z,76.5
2017-09-12T07:21:46.638Z,76.4
2017-09-12T07:23:08.155Z,76.1
2017-09-12T07:24:09.565Z,76.2
2017-09-12T07:25:31.066Z,76.1
2017-09-12T07:26:32.475Z,76.1
2017-09-12T07:27:53.992Z,75.5
2017-09-12T07:28:55.405Z,75.9
2017-09-12T07:30:16.907Z,75.9
2017-09-12T07:31:18.314Z,75.9
2017-09-12T07:32:39.832Z,76.3
2017-09-12T07:33:41.239Z,76.0
2017-09-12T07:35:02.737Z,76.1
2017-09-12T07:36:04.147Z,76.4
2017-09-12T07:37:25.673Z,76.3
2017-09-12T07:38:27.078Z,75.9
2017-09-12T07:39:48.577Z,76.5
2017-09-12T07:40:49.984Z,76.3
2017-09-12T07:42:11.502Z,77.3
2017-09-12T07:43:12.910Z,76.7
2017-09-12T07:44:34.415Z,77.1
2017-09-12T07:45:35.822Z,77.1
2017-09-12T07:46:57.343Z,76.9
2017-09-12T07:47:58.751Z,77.3
2017-09-12T07:49:20.252Z,77.1
2017-09-12T07:50:21.659Z,77.5
2017-09-12T07:51:43.180Z,77.4
2017-09-12T07:52:44.589Z,77.2
2017-09-12T07:54:06.087Z,76.1
2017-09-12T07:55:07.495Z,76.1
2017-09-12T07:56:29.030Z,75.7
2017-09-12T07:57:30.425Z,74.7
2017-09-12T07:58:51.925Z,73.6
2017-09-12T07:59:53.332Z,73.4
2017-09-12T08:01:14.835Z,73.8
2017-09-12T08:02:16.243Z,74.3
2017-09-12T08:03:37.763Z,74.3
2017-09-12T08:04:39.173Z,73.9
2017-09-12T08:06:00.675Z,73.3
2017-09-12T08:07:02.085Z,73.0
2017-09-12T08:08:23.606Z,72.6
2017-09-12T08:09:25.014Z,72.4
2017-09-12T08:10:47.011Z,71.1
2017-09-12T08:11:48.421Z,70.3
2017-09-12T08:13:09.945Z,71.6
2017-09-12T08:14:11.355Z,71.2
2017-09-12T08:15:32.858Z,70.4
2017-09-12T08:16:34.267Z,70.0
2017-09-12T08:17:55.787Z,70.4
2017-09-12T08:18:57.198Z,69.4
2017-09-12T08:20:18.702Z,69.2
2017-09-12T08:21:20.112Z,69.7
2017-09-12T08:22:41.634Z,69.1
2017-09-12T08:23:43.043Z,70.4
2017-09-12T08:25:04.546Z,71.0
2017-09-12T08:26:05.955Z,71.3
2017-09-12T08:27:27.480Z,71.0
2017-09-12T08:28:28.889Z,71.4
2017-09-12T08:29:50.397Z,71.3
2017-09-12T08:30:51.807Z,71.5
2017-09-12T08:32:13.330Z,71.8
2017-09-12T08:33:14.738Z,72.0
2017-09-12T08:34:36.238Z,72.1
2017-09-12T08:35:37.646Z,71.8
2017-09-12T08:36:59.167Z,72.0
2017-09-12T08:38:00.578Z,71.6
2017-09-12T08:39:22.082Z,72.0
2017-09-12T08:40:23.492Z,71.3
2017-09-12T08:41:44.991Z,70.5
2017-09-12T08:42:46.401Z,71.4
2017-09-12T08:44:07.925Z,72.0
2017-09-12T08:45:09.334Z,71.3
2017-09-12T08:46:30.836Z,69.4
2017-09-12T08:47:32.245Z,70.0
2017-09-12T08:48:53.767Z,69.8
2017-09-12T08:49:55.178Z,70.6
2017-09-12T08:51:16.679Z,69.2
2017-09-12T08:52:18.087Z,69.6
2017-09-12T08:53:39.609Z,69.6
2017-09-12T08:54:41.018Z,69.4
2017-09-12T08:56:02.521Z,69.8
2017-09-12T08:57:03.931Z,69.1
2017-09-12T08:58:25.453Z,69.6
2017-09-12T08:59:26.863Z,69.8
2017-09-12T09:00:48.367Z,70.2
2017-09-12T09:01:49.774Z,69.9
2017-09-12T09:03:11.297Z,70.0
2017-09-12T09:04:12.706Z,68.6
2017-09-12T09:05:34.209Z,68.6
2017-09-12T09:06:35.618Z,68.2
2017-09-12T09:07:57.148Z,67.3
2017-09-12T09:08:58.552Z,66.5
2017-09-12T09:10:20.051Z,67.0
2017-09-12T09:11:21.461Z,67.5
2017-09-12T09:12:42.981Z,67.4
2017-09-12T09:13:44.394Z,68.1
2017-09-12T09:15:05.895Z,67.9
2017-09-12T09:16:07.304Z,68.7
2017-09-12T09:17:28.830Z,67.9
2017-09-12T09:18:30.240Z,67.3
2017-09-12T09:19:51.744Z,67.2
2017-09-12T09:20:53.151Z,67.8
2017-09-12T09:22:14.669Z,68.4
2017-09-12T09:23:16.079Z,68.9
2017-09-12T09:24:37.580Z,67.0
2017-09-12T09:25:38.990Z,67.2
2017-09-12T09:27:00.490Z,67.4
2017-09-12T09:28:01.906Z,66.9
2017-09-12T09:29:23.423Z,67.3
2017-09-12T09:30:24.831Z,67.2
2017-09-12T09:31:46.331Z,66.7
2017-09-12T09:32:47.740Z,66.8
2017-09-12T09:34:09.264Z,66.9
2017-09-12T09:35:10.674Z,65.6
2017-09-12T09:36:32.186Z,66.0
2017-09-12T09:37:33.596Z,65.9
2017-09-12T09:38:55.118Z,64.1
2017-09-12T09:39:56.529Z,63.6
2017-09-12T09:41:18.028Z,64.5
2017-09-12T09:42:19.458Z,64.1
2017-09-12T09:43:40.961Z,63.7
2017-09-12T09:44:42.371Z,62.3
2017-09-12T09:46:03.884Z,63.2
2017-09-12T09:47:05.295Z,64.0
2017-09-12T09:48:26.816Z,62.0
2017-09-12T09:49:28.229Z,63.0
2017-09-12T09:50:49.728Z,62.7
2017-09-12T09:51:51.142Z,63.5
2017-09-12T09:53:12.660Z,63.7
2017-09-12T09:54:14.070Z,63.3
2017-09-12T09:55:35.579Z,64.2
2017-09-12T09:56:36.988Z,64.7
2017-09-12T09:57:58.510Z,64.0
2017-09-12T09:58:59.920Z,63.6
2017-09-12T10:00:21.421Z,63.5
2017-09-12T10:01:22.830Z,63.5
2017-09-12T10:02:44.354Z,63.4
2017-09-12T10:03:45.764Z,64.0
2017-09-12T10:05:07.271Z,62.3
2017-09-12T10:06:08.681Z,62.2
2017-09-12T10:07:30.222Z,61.8
2017-09-12T10:08:31.633Z,62.4
2017-09-12T10:09:53.136Z,61.1
2017-09-12T10:10:54.546Z,59.6
2017-09-12T10:12:16.048Z,59.8
2017-09-12T10:13:17.458Z,59.2
2017-09-12T10:14:38.983Z,59.2
2017-09-12T10:15:40.396Z,57.7
2017-09-12T10:17:02.392Z,57.6
2017-09-12T10:18:03.803Z,58.4
2017-09-12T10:19:25.330Z,57.8
2017-09-12T10:20:26.740Z,57.6
2017-09-12T10:21:48.243Z,58.5
2017-09-12T10:22:49.653Z,57.6
2017-09-12T10:24:11.176Z,57.3
2017-09-12T10:25:12.587Z,57.7
2017-09-12T10:26:34.093Z,57.9
2017-09-12T10:27:35.501Z,57.6
2017-09-12T10:28:57.026Z,57.0
2017-09-12T10:29:58.439Z,56.6
2017-09-12T10:31:19.949Z,56.2
2017-09-12T10:32:21.362Z,55.3
2017-09-12T10:33:42.885Z,56.3
2017-09-12T10:34:44.299Z,56.3
2017-09-12T10:36:05.804Z,54.0
2017-09-12T10:37:07.216Z,54.8
2017-09-12T10:38:28.742Z,54.2
2017-09-12T10:39:30.155Z,55.0
2017-09-12T10:40:51.660Z,54.5
2017-09-12T10:41:53.070Z,54.7
2017-09-12T10:43:14.597Z,55.2
2017-09-12T10:44:16.009Z,55.0
2017-09-12T10:45:37.516Z,54.5
2017-09-12T10:46:38.931Z,54.9
2017-09-12T10:48:00.456Z,53.4
2017-09-12T10:49:01.869Z,53.5
2017-09-12T10:50:23.876Z,52.3
2017-09-12T10:51:25.293Z,51.4
2017-09-12T10:52:46.798Z,53.2
2017-09-12T10:53:48.211Z,52.9
2017-09-12T10:55:10.224Z,53.5
2017-09-12T10:56:11.636Z,53.1
2017-09-12T10:57:33.145Z,53.6
2017-09-12T10:58:34.557Z,53.9
2017-09-12T10:59:56.087Z,54.8
2017-09-12T11:00:57.499Z,55.1
2017-09-12T11:02:19.009Z,54.3
2017-09-12T11:03:20.418Z,55.1
2017-09-12T11:04:41.947Z,56.7
2017-09-12T11:05:43.359Z,56.4
2017-09-12T11:07:04.861Z,54.5
2017-09-12T11:08:06.274Z,53.1
2017-09-12T11:09:27.801Z,53.9
2017-09-12T11:10:29.213Z,54.4
2017-09-12T11:11:50.721Z,52.8
2017-09-12T11:12:52.134Z,54.1
2017-09-12T11:14:13.658Z,53.5
2017-09-12T11:15:15.070Z,52.8
2017-09-12T11:16:38.069Z,53.4
2017-09-12T11:17:39.480Z,53.9
2017-09-12T11:19:01.005Z,53.4
2017-09-12T11:20:02.431Z,53.8
2017-09-12T11:21:23.924Z,53.3
2017-09-12T11:22:25.334Z,53.1
2017-09-12T11:23:47.353Z,53.4
2017-09-12T11:24:48.764Z,53.5
2017-09-12T11:26:10.275Z,53.8
2017-09-12T11:27:11.687Z,52.9
2017-09-12T11:28:33.215Z,54.6
2017-09-12T11:29:34.626Z,55.1
2017-09-12T11:30:56.625Z,54.5
2017-09-12T11:31:58.038Z,53.4
2017-09-12T11:33:19.567Z,52.6
2017-09-12T11:34:20.979Z,52.7
2017-09-12T11:35:42.492Z,53.1
2017-09-12T11:36:43.905Z,52.9
2017-09-12T11:38:05.413Z,52.9
2017-09-12T11:39:06.823Z,52.3
2017-09-12T11:40:28.348Z,52.3
2017-09-12T11:41:29.759Z,51.7
2017-09-12T11:42:51.275Z,52.3
2017-09-12T11:43:52.680Z,51.7
2017-09-12T11:45:14.226Z,51.1
2017-09-12T11:46:15.621Z,52.2
2017-09-12T11:47:37.624Z,52.3
2017-09-12T11:48:39.033Z,51.5
2017-09-12T11:50:00.562Z,52.7
2017-09-12T11:51:01.983Z,53.4
2017-09-12T11:52:23.480Z,53.9
2017-09-12T11:53:24.890Z,52.0
2017-09-12T11:54:46.423Z,51.2
2017-09-12T11:55:47.832Z,52.3
2017-09-12T11:57:09.341Z,51.5
2017-09-12T11:58:10.754Z,52.1
2017-09-12T11:59:32.278Z,52.6
2017-09-12T12:00:33.690Z,53.0
2017-09-12T12:01:55.198Z,52.2
2017-09-12T12:02:56.603Z,54.2
2017-09-12T12:04:18.129Z,53.4
2017-09-12T12:05:19.541Z,53.3
2017-09-12T12:06:41.050Z,52.0
2017-09-12T12:07:42.462Z,52.7
2017-09-12T12:09:03.987Z,52.5
2017-09-12T12:10:05.397Z,53.3
2017-09-12T12:11:26.902Z,52.1
2017-09-12T12:12:28.312Z,52.2
2017-09-12T12:13:49.864Z,50.9
2017-09-12T12:14:51.247Z,50.2
2017-09-12T12:16:12.759Z,52.4
2017-09-12T12:17:14.165Z,50.4
2017-09-12T12:18:35.691Z,52.1
2017-09-12T12:19:37.100Z,52.1
2017-09-12T12:20:58.603Z,51.5
2017-09-12T12:22:00.014Z,53.4
2017-09-12T12:23:21.524Z,54.0
2017-09-12T12:24:22.938Z,54.8
2017-09-12T12:25:44.454Z,53.0
2017-09-12T12:26:45.867Z,53.8
2017-09-12T12:28:07.372Z,53.5
2017-09-12T12:29:08.783Z,52.7
2017-09-12T12:30:30.305Z,52.3
2017-09-12T12:31:31.718Z,51.0
2017-09-12T12:32:53.228Z,52.4
2017-09-12T12:33:54.637Z,51.9
2017-09-12T12:35:16.166Z,52.6
2017-09-12T12:36:17.576Z,52.3
2017-09-12T12:37:39.573Z,52.1
2017-09-12T12:38:40.987Z,51.7
2017-09-12T12:40:02.509Z,48.7
2017-09-12T12:41:03.919Z,49.1
2017-09-12T12:42:25.422Z,46.8
2017-09-12T12:43:26.833Z,47.0
2017-09-12T12:44:48.381Z,47.7
2017-09-12T12:45:49.775Z,47.3
2017-09-12T12:47:11.277Z,47.8
2017-09-12T12:48:12.686Z,48.6
2017-09-12T12:49:34.215Z,48.4
2017-09-12T12:50:35.627Z,48.5
2017-09-12T12:51:57.135Z,49.0
2017-09-12T12:52:58.545Z,49.2
2017-09-12T12:54:20.072Z,49.0
2017-09-12T12:55:21.482Z,48.6
2017-09-12T12:56:43.482Z,49.7
2017-09-12T12:57:44.891Z,50.5
2017-09-12T12:59:06.421Z,51.0
2017-09-12T13:00:07.830Z,50.4
2017-09-12T13:01:29.335Z,49.3
2017-09-12T13:02:30.745Z,50.0
2017-09-12T13:03:52.247Z,50.1
2017-09-12T13:04:53.658Z,50.3
2017-09-12T13:06:15.181Z,50.9
2017-09-12T13:07:16.593Z,52.3
2017-09-12T13:08:38.104Z,50.9
2017-09-12T13:09:39.514Z,52.1
2017-09-12T13:11:01.037Z,51.5
2017-09-12T13:12:02.452Z,50.9
2017-09-12T13:13:23.952Z,51.0
2017-09-12T13:14:25.363Z,51.6
2017-09-12T13:15:46.885Z,51.2
2017-09-12T13:16:48.366Z,50.6
2017-09-12T13:18:09.871Z,50.6
2017-09-12T13:19:11.279Z,50.9
2017-09-12T13:20:33.039Z,49.6
2017-09-12T13:21:34.500Z,49.7
2017-09-12T13:22:56.004Z,50.8
2017-09-12T13:23:57.422Z,49.7
2017-09-12T13:25:18.950Z,50.4
2017-09-12T13:26:20.361Z,50.4
2017-09-12T13:27:41.872Z,51.0
2017-09-12T13:28:43.283Z,50.2
2017-09-12T13:30:05.299Z,49.9
2017-09-12T13:31:06.715Z,49.9
2017-09-12T13:32:28.223Z,50.3
2017-09-12T13:33:29.634Z,50.7
2017-09-12T13:34:51.173Z,50.8
2017-09-12T13:35:52.587Z,49.9
2017-09-12T13:37:14.136Z,48.4
2017-09-12T13:38:15.549Z,48.9
2017-09-12T13:39:37.109Z,48.8
2017-09-12T13:40:38.498Z,48.2
2017-09-12T13:42:00.527Z,49.5
2017-09-12T13:43:01.935Z,48.6
2017-09-12T13:44:23.473Z,49.3
2017-09-12T13:45:24.890Z,49.7
2017-09-12T13:46:47.911Z,49.7
2017-09-12T13:47:49.367Z,50.0
2017-09-12T13:49:10.880Z,50.9
2017-09-12T13:50:12.353Z,50.8
2017-09-12T13:51:33.936Z,51.0
2017-09-12T13:52:35.392Z,51.2
2017-09-12T13:53:56.932Z,51.7
2017-09-12T13:54:58.351Z,51.8
2017-09-12T13:56:19.963Z,51.0
2017-09-12T13:57:21.379Z,50.0
2017-09-12T13:58:43.021Z,49.8
2017-09-12T13:59:44.435Z,48.5
2017-09-12T14:01:05.959Z,48.7
2017-09-12T14:02:07.370Z,47.4
2017-09-12T14:03:28.878Z,47.1
2017-09-12T14:04:30.381Z,48.6
2017-09-12T14:05:52.399Z,48.2
2017-09-12T14:06:53.851Z,48.5
2017-09-12T14:08:15.420Z,49.0
2017-09-12T14:09:16.890Z,48.4
2017-09-12T14:10:38.520Z,48.8
2017-09-12T14:11:39.932Z,49.2
2017-09-12T14:13:01.538Z,50.4
2017-09-12T14:14:02.948Z,50.8
2017-09-12T14:15:24.472Z,52.3
2017-09-12T14:16:25.883Z,52.6
2017-09-12T14:17:47.578Z,54.1
2017-09-12T14:18:49.014Z,54.2
2017-09-12T14:20:11.035Z,55.2
2017-09-12T14:21:12.442Z,56.2
2017-09-12T14:22:33.986Z,59.8
2017-09-12T14:23:35.488Z,63.2
2017-09-12T14:24:57.044Z,65.3
2017-09-12T14:25:58.568Z,64.2
2017-09-12T14:27:20.072Z,67.2
2017-09-12T14:28:21.632Z,68.9
2017-09-12T14:29:43.154Z,69.2
2017-09-12T14:30:44.601Z,69.6
2017-09-12T14:32:06.231Z,70.6
2017-09-12T14:33:07.800Z,72.1
2017-09-12T14:34:29.353Z,72.9
2017-09-12T14:35:30.907Z,72.9
2017-09-12T14:36:52.538Z,73.4
2017-09-12T14:37:53.991Z,75.9
2017-09-12T14:39:15.604Z,75.2
2017-09-12T14:40:17.014Z,76.7
2017-09-12T14:41:38.614Z,73.9
2017-09-12T14:42:40.055Z,73.8
2017-09-12T14:44:01.652Z,74.3
2017-09-12T14:45:03.061Z,72.6
2017-09-12T14:46:26.189Z,71.5
2017-09-12T14:47:27.598Z,71.2
2017-09-12T14:48:49.108Z,71.7
2017-09-12T14:49:50.512Z,72.6
2017-09-12T14:51:12.619Z,72.5
2017-09-12T14:52:14.092Z,72.1
2017-09-12T14:53:35.681Z,71.1
2017-09-12T14:54:37.090Z,71.7
2017-09-12T14:55:59.071Z,71.1
2017-09-12T14:57:00.584Z,71.7
2017-09-12T14:58:22.135Z,70.9
2017-09-12T14:59:23.552Z,71.2
2017-09-12T15:00:45.218Z,72.8
2017-09-12T15:01:46.672Z,72.2
2017-09-12T15:03:08.199Z,69.4
2017-09-12T15:03:44.245Z,68.7
2017-09-12T15:04:45.708Z,67.4
2017-09-12T15:06:07.345Z,69.6
2017-09-12T15:07:08.763Z,69.6
2017-09-12T15:08:30.394Z,67.7
2017-09-12T15:09:31.859Z,67.1
2017-09-12T15:10:53.502Z,67.4
2017-09-12T15:11:54.943Z,67.7
2017-09-12T15:13:16.485Z,67.0
2017-09-12T15:14:17.948Z,66.9
2017-09-12T15:15:49.471Z,65.8
2017-09-12T15:16:50.884Z,66.8
2017-09-12T15:18:12.435Z,65.7
2017-09-12T15:19:13.942Z,65.6
2017-09-12T15:20:35.462Z,66.2
2017-09-12T15:21:36.894Z,66.5
2017-09-12T15:22:58.393Z,66.6
2017-09-12T15:23:59.886Z,66.7
2017-09-12T15:25:21.389Z,66.0
2017-09-12T15:26:22.797Z,66.1
2017-09-12T15:27:44.316Z,63.4
2017-09-12T15:28:45.728Z,63.4
2017-09-12T15:30:07.226Z,64.5
2017-09-12T15:31:08.636Z,64.7
2017-09-12T15:32:30.152Z,63.0
2017-09-12T15:33:31.566Z,61.9
2017-09-12T15:34:53.063Z,63.6
2017-09-12T15:35:54.499Z,63.1
2017-09-12T15:37:16.020Z,60.9
2017-09-12T15:38:17.432Z,62.2
2017-09-12T15:39:38.927Z,61.6
2017-09-12T15:40:40.340Z,62.0
2017-09-12T15:42:01.859Z,62.0
2017-09-12T15:43:03.272Z,63.5
2017-09-12T15:44:24.773Z,63.0
2017-09-12T15:45:26.186Z,63.1
2017-09-12T15:46:47.707Z,62.8
2017-09-12T15:47:49.120Z,63.5
2017-09-12T15:49:10.622Z,62.9
2017-09-12T15:50:12.031Z,63.5